Time;durP1;ratioP1;P1;durP2;ratioP2;P2;SDS_P1;SDS_P2;PMS_P1;PMS_P2;Temp;Humidity;BMP_temperature;BMP_pressure;BME280_temperature;BME280_humidity;BME280_pressure;Samples;Min_cycle;Max_cycle;Signal;HPM_P1;HPM_P2
2022/02/16 00:00:12;;;;;;;14.38;8.25;;;;;;;-0.20;67.77;101001.20;1649416;86;21069;-69
2022/02/16 00:02:41;;;;;;;17.50;9.35;;;;;;;-0.18;67.80;100993.98;1661760;85;21158;-69
2022/02/16 00:05:11;;;;;;;16.45;9.13;;;;;;;-0.20;67.91;100997.27;1668859;85;21104;-69
2022/02/16 00:07:42;;;;;;;13.48;8.90;;;;;;;-0.20;67.97;100998.58;1656429;86;21089;-69
2022/02/16 00:10:11;;;;;;;14.13;9.23;;;;;;;-0.17;68.03;100998.23;1673014;84;21057;-69
2022/02/16 00:12:39;;;;;;;14.93;8.90;;;;;;;-0.14;68.05;100997.89;1640676;86;21059;-68
2022/02/16 00:15:07;;;;;;;14.87;8.73;;;;;;;-0.10;68.08;100999.16;1658921;85;21130;-69
2022/02/16 00:17:36;;;;;;;15.08;8.98;;;;;;;-0.09;68.06;100996.37;1676701;84;21081;-68
2022/02/16 00:20:05;;;;;;;15.50;9.38;;;;;;;-0.08;68.02;100989.31;1660445;86;33456;-68
2022/02/16 00:22:34;;;;;;;14.35;8.60;;;;;;;-0.08;68.02;100984.06;1668459;85;21089;-69
2022/02/16 00:25:01;;;;;;;14.03;9.20;;;;;;;-0.09;68.01;100980.63;1658622;84;21163;-69
2022/02/16 00:27:27;;;;;;;15.10;9.25;;;;;;;-0.08;68.00;100974.88;1677432;85;21912;-69
2022/02/16 00:29:56;;;;;;;16.37;9.40;;;;;;;-0.08;68.03;100968.30;1664396;84;21045;-69
2022/02/16 00:32:23;;;;;;;16.90;9.73;;;;;;;-0.07;68.07;100959.42;1653288;85;21632;-69
2022/02/16 00:34:50;;;;;;;18.42;10.03;;;;;;;-0.07;68.06;100958.92;1692328;82;21196;-69
2022/02/16 00:37:17;;;;;;;16.97;9.68;;;;;;;-0.08;68.11;100955.98;1637654;86;21037;-69
2022/02/16 00:39:43;;;;;;;16.65;10.03;;;;;;;-0.07;68.14;100955.48;1658656;85;22171;-68
2022/02/16 00:42:11;;;;;;;18.60;10.82;;;;;;;-0.07;68.16;100952.36;1671888;84;21120;-69
2022/02/16 00:44:38;;;;;;;16.15;9.85;;;;;;;-0.07;68.19;100948.42;1664586;86;21030;-68
2022/02/16 00:47:06;;;;;;;15.83;9.38;;;;;;;-0.07;68.25;100947.61;1664261;85;21655;-69
2022/02/16 00:49:34;;;;;;;15.60;9.95;;;;;;;-0.05;68.33;100949.07;1658476;85;21093;-69
2022/02/16 00:52:02;;;;;;;16.52;10.28;;;;;;;-0.04;68.40;100942.00;1642628;86;21599;-69
2022/02/16 00:54:30;;;;;;;16.20;9.90;;;;;;;-0.04;68.46;100942.81;1670017;84;21040;-69
2022/02/16 00:57:01;;;;;;;14.78;9.60;;;;;;;-0.03;68.60;100935.28;1666425;86;21074;-69
2022/02/16 00:59:30;;;;;;;17.60;9.80;;;;;;;0.00;68.71;100935.42;1669991;84;21041;-69
2022/02/16 01:01:58;;;;;;;15.95;9.78;;;;;;;0.03;68.90;100938.98;1667667;85;21551;-69
2022/02/16 01:04:25;;;;;;;14.98;9.88;;;;;;;0.08;69.05;100934.02;1649478;86;21552;-69
2022/02/16 01:06:55;;;;;;;14.87;9.78;;;;;;;0.18;69.15;100939.02;1629147;86;21062;-69
2022/02/16 01:09:25;;;;;;;14.98;9.48;;;;;;;0.26;69.24;100934.98;1626221;88;21038;-69
2022/02/16 01:11:53;;;;;;;14.63;9.60;;;;;;;0.36;69.25;100938.19;1652830;85;21041;-69
2022/02/16 01:14:22;;;;;;;18.32;11.12;;;;;;;0.44;69.28;100930.70;1651861;86;21056;-69
2022/02/16 01:16:50;;;;;;;16.07;10.60;;;;;;;0.52;69.27;100918.77;1654224;86;21098;-69
2022/02/16 01:19:19;;;;;;;19.82;11.70;;;;;;;0.56;69.19;100920.54;1625996;87;21007;-69
2022/02/16 01:21:46;;;;;;;17.80;11.12;;;;;;;0.62;69.25;100929.83;1626154;88;20982;-69
2022/02/16 01:24:13;;;;;;;19.75;11.30;;;;;;;0.70;69.30;100928.43;1626249;88;21069;-69
2022/02/16 01:26:40;;;;;;;19.98;12.23;;;;;;;0.78;69.27;100928.01;1652142;86;21057;-69
2022/02/16 01:29:10;;;;;;;18.50;12.45;;;;;;;0.81;69.17;100924.52;1667170;85;21140;-69
2022/02/16 01:31:38;;;;;;;19.85;11.70;;;;;;;0.81;69.15;100921.88;1677920;85;21050;-69
2022/02/16 01:34:05;;;;;;;21.62;13.03;;;;;;;0.82;69.12;100918.75;1678008;85;21466;-69
2022/02/16 01:36:33;;;;;;;22.17;13.18;;;;;;;0.80;69.09;100914.19;1657926;85;21037;-69
2022/02/16 01:39:04;;;;;;;23.85;13.08;;;;;;;0.77;69.07;100922.44;1651984;86;21013;-69
2022/02/16 01:41:35;;;;;;;23.35;14.63;;;;;;;0.73;69.07;100914.11;1654755;85;21873;-69
2022/02/16 01:44:06;;;;;;;24.07;14.10;;;;;;;0.69;69.15;100904.46;1653074;85;21022;-69
2022/02/16 01:46:54;;;;;;;20.10;13.05;;;;;;;0.69;69.21;100899.67;1653322;85;21132;-69
2022/02/16 01:49:22;;;;;;;22.50;12.88;;;;;;;0.70;69.30;100899.52;1652056;86;21515;-70
2022/02/16 01:51:49;;;;;;;20.45;12.63;;;;;;;0.78;69.36;100903.03;1651913;86;21021;-69
2022/02/16 01:54:17;;;;;;;18.85;11.90;;;;;;;0.84;69.39;100897.85;1641765;87;21197;-69
2022/02/16 01:56:47;;;;;;;17.48;11.12;;;;;;;0.89;69.39;100896.00;1626286;88;21010;-69
2022/02/16 01:59:22;;;;;;;15.03;10.18;;;;;;;0.94;69.42;100896.24;1623869;88;21137;-69
2022/02/16 02:02:08;;;;;;;19.00;10.95;;;;;;;1.01;69.43;100888.42;1652153;86;21057;-69
2022/02/16 02:04:36;;;;;;;16.90;10.45;;;;;;;1.07;69.40;100892.95;1674247;85;21464;-69
2022/02/16 02:07:04;;;;;;;16.45;10.05;;;;;;;1.09;69.38;100886.51;1642562;86;21155;-69
2022/02/16 02:09:31;;;;;;;16.25;10.80;;;;;;;1.11;69.38;100877.09;1625929;88;21050;-68
2022/02/16 02:11:59;;;;;;;14.30;9.38;;;;;;;1.19;69.41;100882.77;1651917;86;20985;-69
2022/02/16 02:14:26;;;;;;;14.95;10.10;;;;;;;1.25;69.34;100884.62;1652051;86;20978;-69
2022/02/16 02:17:00;;;;;;;15.98;9.78;;;;;;;1.32;69.28;100882.89;1641942;86;21400;-69
2022/02/16 02:19:27;;;;;;;17.70;10.60;;;;;;;1.39;69.21;100880.63;1654358;86;21998;-69
2022/02/16 02:21:56;;;;;;;15.43;9.05;;;;;;;1.43;69.13;100881.06;1651915;86;20970;-69
2022/02/16 02:24:23;;;;;;;16.05;9.65;;;;;;;1.47;69.08;100881.49;1652001;86;21082;-69
2022/02/16 02:26:50;;;;;;;13.98;9.23;;;;;;;1.54;69.06;100879.73;1636145;85;20987;-69
2022/02/16 02:29:18;;;;;;;14.20;9.13;;;;;;;1.62;69.08;100880.42;1708049;84;21073;-68
2022/02/16 02:31:53;;;;;;;14.03;9.33;;;;;;;1.71;68.97;100879.80;1706557;84;21628;-70
2022/02/16 02:34:21;;;;;;;13.55;9.23;;;;;;;1.78;68.88;100885.92;1697348;84;21055;-69
2022/02/16 02:36:48;;;;;;;14.33;9.00;;;;;;;1.82;68.79;100879.77;1710603;84;21010;-67
2022/02/16 02:39:14;;;;;;;17.20;8.85;;;;;;;1.88;68.68;100883.77;1708022;84;21549;-70
2022/02/16 02:41:42;;;;;;;14.18;9.15;;;;;;;1.89;68.57;100887.20;1707926;84;21089;-69
2022/02/16 02:44:08;;;;;;;15.38;9.60;;;;;;;1.91;68.58;100881.73;1697418;84;22116;-69
2022/02/16 02:46:35;;;;;;;13.75;8.70;;;;;;;1.96;68.55;100880.16;1710739;83;21506;-69
2022/02/16 02:49:02;;;;;;;14.13;8.58;;;;;;;2.01;68.50;100873.02;1707859;84;21430;-69
2022/02/16 02:51:29;;;;;;;13.68;8.50;;;;;;;2.05;68.37;100876.38;1707834;84;21058;-69
2022/02/16 02:53:57;;;;;;;12.88;8.58;;;;;;;2.04;68.27;100878.72;1697362;84;20980;-69
2022/02/16 02:56:25;;;;;;;14.98;8.75;;;;;;;2.05;68.27;100879.02;1710689;83;21651;-70
2022/02/16 02:58:56;;;;;;;12.80;8.98;;;;;;;2.07;68.25;100881.44;1707993;84;21034;-69
2022/02/16 03:01:23;;;;;;;12.55;8.78;;;;;;;2.06;68.25;100864.02;1708365;84;21043;-69
2022/02/16 03:03:52;;;;;;;13.70;8.80;;;;;;;2.08;68.27;100873.36;1697318;84;21074;-68
2022/02/16 03:06:21;;;;;;;13.88;8.93;;;;;;;2.08;68.31;100877.83;1710799;83;21540;-68
2022/02/16 03:08:49;;;;;;;14.53;8.90;;;;;;;2.10;68.39;100877.91;1707951;84;21121;-68
2022/02/16 03:11:19;;;;;;;12.93;7.80;;;;;;;2.07;68.43;100873.53;1697044;84;21105;-68
2022/02/16 03:13:44;;;;;;;11.97;8.28;;;;;;;2.04;68.55;100872.13;1652765;86;21074;-68
2022/02/16 03:16:17;;;;;;;14.07;8.98;;;;;;;2.09;68.60;100878.93;1652222;86;21126;-68
2022/02/16 03:18:44;;;;;;;13.05;8.30;;;;;;;2.10;68.66;100870.01;1653091;86;21033;-68
2022/02/16 03:21:11;;;;;;;11.48;8.15;;;;;;;2.11;68.73;100871.66;1679476;85;21154;-69
2022/02/16 03:23:38;;;;;;;11.55;7.87;;;;;;;2.15;68.78;100872.59;1656104;85;20950;-69
2022/02/16 03:26:06;;;;;;;14.58;8.95;;;;;;;2.11;68.84;100870.85;1652333;85;21030;-69
2022/02/16 03:28:36;;;;;;;12.37;8.25;;;;;;;2.07;68.96;100869.11;1678148;85;21017;-69
2022/02/16 03:31:05;;;;;;;14.33;9.33;;;;;;;2.08;69.09;100874.68;1677323;85;20978;-69
2022/02/16 03:33:33;;;;;;;13.93;8.88;;;;;;;2.14;69.15;100872.26;1678055;85;21107;-69
2022/02/16 03:36:01;;;;;;;13.62;8.85;;;;;;;2.18;69.19;100867.75;1651539;86;21113;-70
2022/02/16 03:38:29;;;;;;;14.85;8.55;;;;;;;2.22;69.17;100861.58;1651420;87;21579;-69
2022/02/16 03:40:56;;;;;;;13.75;8.75;;;;;;;2.20;69.22;100860.95;1651524;87;21082;-69
2022/02/16 03:43:23;;;;;;;13.83;8.90;;;;;;;2.19;69.31;100860.65;1654337;85;20973;-70
2022/02/16 03:45:52;;;;;;;12.58;8.43;;;;;;;2.22;69.42;100862.90;1652060;86;21153;-70
2022/02/16 03:48:21;;;;;;;16.40;8.95;;;;;;;2.26;69.45;100856.22;1652730;85;20990;-69
2022/02/16 03:50:47;;;;;;;12.78;8.90;;;;;;;2.32;69.52;100852.30;1642219;87;21030;-69
2022/02/16 03:53:19;;;;;;;14.83;8.90;;;;;;;2.42;69.52;100854.58;1660857;84;21038;-69
2022/02/16 03:55:45;;;;;;;13.32;8.38;;;;;;;2.46;69.48;100849.22;1652080;86;21060;-69
2022/02/16 03:58:12;;;;;;;12.65;8.60;;;;;;;2.47;69.50;100856.62;1652273;86;21243;-69
2022/02/16 04:00:39;;;;;;;14.50;8.83;;;;;;;2.48;69.53;100849.84;1641980;87;20987;-69
2022/02/16 04:03:07;;;;;;;13.78;8.70;;;;;;;2.52;69.60;100844.99;1654499;86;21323;-69
2022/02/16 04:05:35;;;;;;;13.22;8.00;;;;;;;2.54;69.55;100836.39;1652003;86;21002;-70
2022/02/16 04:08:02;;;;;;;12.37;7.85;;;;;;;2.49;69.60;100831.69;1673672;85;21489;-70
2022/02/16 04:10:29;;;;;;;11.95;8.23;;;;;;;2.46;69.69;100825.48;1669225;86;21113;-69
2022/02/16 04:12:57;;;;;;;12.13;8.40;;;;;;;2.45;69.79;100830.47;1681824;84;21501;-69
2022/02/16 04:15:24;;;;;;;15.05;8.53;;;;;;;2.42;69.88;100826.09;1679402;85;21536;-69
2022/02/16 04:17:53;;;;;;;13.60;8.35;;;;;;;2.41;70.03;100828.43;1679021;85;21025;-70
2022/02/16 04:20:21;;;;;;;12.13;8.45;;;;;;;2.43;70.15;100823.75;1652838;86;21030;-70
2022/02/16 04:22:50;;;;;;;13.35;8.85;;;;;;;2.45;70.19;100827.83;1679266;85;21127;-70
2022/02/16 04:25:17;;;;;;;13.60;8.23;;;;;;;2.47;70.23;100824.98;1678153;85;21137;-70
2022/02/16 04:27:46;;;;;;;14.40;8.65;;;;;;;2.49;70.28;100822.46;1627275;87;20995;-70
2022/02/16 04:30:13;;;;;;;14.47;9.05;;;;;;;2.51;70.31;100823.60;1677813;85;21616;-70
2022/02/16 04:32:40;;;;;;;15.05;9.45;;;;;;;2.53;70.35;100825.52;1677976;85;21627;-70
2022/02/16 04:35:08;;;;;;;14.03;8.53;;;;;;;2.55;70.36;100821.68;1651384;86;21492;-70
2022/02/16 04:37:34;;;;;;;13.53;8.48;;;;;;;2.57;70.36;100819.67;1651409;87;21565;-70
2022/02/16 04:40:03;;;;;;;12.55;8.65;;;;;;;2.56;70.33;100818.02;1651425;86;21031;-70
2022/02/16 04:42:31;;;;;;;11.88;7.87;;;;;;;2.53;70.34;100819.77;1677796;85;21077;-69
2022/02/16 04:44:59;;;;;;;11.95;8.13;;;;;;;2.49;70.39;100809.79;1678039;85;21014;-69
2022/02/16 04:47:25;;;;;;;13.30;8.85;;;;;;;2.46;70.43;100812.31;1667683;86;21552;-69
2022/02/16 04:49:54;;;;;;;12.70;8.28;;;;;;;2.46;70.49;100813.63;1680376;85;21043;-69
2022/02/16 04:52:21;;;;;;;16.52;9.58;;;;;;;2.44;70.53;100816.17;1651231;87;21095;-69
2022/02/16 04:54:48;;;;;;;15.43;9.20;;;;;;;2.42;70.63;100811.59;1677925;85;21064;-69
2022/02/16 04:57:16;;;;;;;17.87;10.48;;;;;;;2.48;70.74;100812.94;1654543;85;20955;-70
2022/02/16 04:59:44;;;;;;;13.28;8.88;;;;;;;2.58;70.74;100813.37;1678521;84;21106;-69
2022/02/16 05:02:11;;;;;;;14.75;9.45;;;;;;;2.68;70.69;100813.00;1677997;85;21481;-70
2022/02/16 05:04:37;;;;;;;12.82;9.10;;;;;;;2.78;70.61;100820.03;1678043;85;20959;-69
2022/02/16 05:07:05;;;;;;;15.00;9.20;;;;;;;2.86;70.46;100820.34;1677894;85;21030;-69
2022/02/16 05:09:32;;;;;;;16.27;9.60;;;;;;;2.86;70.28;100812.42;1677767;85;21109;-70
2022/02/16 05:11:59;;;;;;;15.68;9.10;;;;;;;2.88;70.21;100811.73;1676616;85;21144;-69
2022/02/16 05:14:27;;;;;;;15.48;9.20;;;;;;;2.94;70.17;100806.17;1678678;85;20973;-69
2022/02/16 05:16:54;;;;;;;14.13;9.85;;;;;;;2.96;70.06;100807.60;1669596;85;21513;-70
2022/02/16 05:19:23;;;;;;;16.00;8.80;;;;;;;2.98;70.00;100815.30;1651696;86;21038;-70
2022/02/16 05:21:50;;;;;;;13.83;8.50;;;;;;;3.00;69.92;100820.69;1631917;85;21109;-70
2022/02/16 05:24:19;;;;;;;14.95;9.48;;;;;;;2.99;69.82;100824.84;1678693;85;21525;-70
2022/02/16 05:26:47;;;;;;;17.48;10.05;;;;;;;2.94;69.81;100826.77;1668944;86;21484;-70
2022/02/16 05:29:14;;;;;;;18.48;10.00;;;;;;;2.91;69.85;100832.95;1637861;85;21156;-70
2022/02/16 05:31:43;;;;;;;15.75;9.73;;;;;;;2.95;69.95;100838.94;1668563;85;21497;-70
2022/02/16 05:34:11;;;;;;;17.73;10.50;;;;;;;3.00;69.92;100839.16;1668402;85;21126;-70
2022/02/16 05:36:39;;;;;;;16.42;10.40;;;;;;;3.08;69.91;100837.34;1630247;86;21115;-70
2022/02/16 05:39:06;;;;;;;16.65;9.53;;;;;;;3.13;69.81;100837.06;1642415;86;21042;-70
2022/02/16 05:41:36;;;;;;;15.05;9.65;;;;;;;3.16;69.69;100839.30;1655344;84;21085;-70
2022/02/16 05:44:04;;;;;;;15.60;9.80;;;;;;;3.13;69.67;100833.10;1651649;86;21085;-70
2022/02/16 05:46:32;;;;;;;17.23;10.98;;;;;;;3.13;69.70;100824.38;1652773;85;21078;-70
2022/02/16 05:48:59;;;;;;;16.30;10.23;;;;;;;3.12;69.68;100816.13;1651922;86;21856;-70
2022/02/16 05:51:25;;;;;;;15.93;10.23;;;;;;;3.09;69.74;100822.61;1642217;86;21141;-69
2022/02/16 05:53:56;;;;;;;16.65;10.28;;;;;;;3.07;69.87;100832.58;1626842;86;21113;-70
2022/02/16 05:56:23;;;;;;;16.12;10.35;;;;;;;3.12;69.99;100837.25;1651925;86;21048;-70
2022/02/16 05:58:52;;;;;;;17.30;10.45;;;;;;;3.18;70.09;100845.17;1651873;86;21014;-70
2022/02/16 06:01:21;;;;;;;17.00;10.68;;;;;;;3.27;70.10;100842.66;1652388;85;21533;-70
2022/02/16 06:03:50;;;;;;;19.55;11.25;;;;;;;3.35;70.05;100843.47;1642262;86;21054;-69
2022/02/16 06:06:18;;;;;;;19.02;11.57;;;;;;;3.40;70.01;100835.77;1626235;88;21090;-69
2022/02/16 06:08:46;;;;;;;20.62;12.65;;;;;;;3.44;69.95;100831.70;1626392;88;20998;-68
2022/02/16 06:11:14;;;;;;;18.42;11.93;;;;;;;3.48;70.01;100824.47;1626004;88;21529;-69
2022/02/16 06:13:42;;;;;;;22.27;12.47;;;;;;;3.56;70.09;100818.70;1626300;88;21219;-69
2022/02/16 06:16:11;;;;;;;19.82;12.00;;;;;;;3.61;70.10;100822.84;1625988;88;21081;-69
2022/02/16 06:18:38;;;;;;;23.67;12.82;;;;;;;3.69;70.04;100823.98;1651821;86;21058;-70
2022/02/16 06:21:07;;;;;;;20.05;11.28;;;;;;;3.74;70.00;100820.20;1659468;84;21626;-70
2022/02/16 06:23:34;;;;;;;20.55;11.97;;;;;;;3.80;69.92;100815.93;1697325;84;21114;-70
2022/02/16 06:26:01;;;;;;;18.35;11.30;;;;;;;3.77;69.77;100815.83;1680291;85;21125;-70
2022/02/16 06:28:28;;;;;;;20.25;11.48;;;;;;;3.71;69.91;100804.75;1680362;85;20951;-70
2022/02/16 06:30:56;;;;;;;19.70;12.78;;;;;;;3.70;70.01;100797.34;1680417;85;21046;-70
2022/02/16 06:33:24;;;;;;;19.82;11.57;;;;;;;3.75;70.19;100796.23;1707929;84;21473;-70
2022/02/16 06:35:50;;;;;;;19.60;11.90;;;;;;;3.84;70.19;100801.28;1707934;84;22052;-70
2022/02/16 06:38:19;;;;;;;19.15;10.68;;;;;;;3.89;70.24;100794.37;1697217;84;21064;-70
2022/02/16 06:40:48;;;;;;;20.23;12.23;;;;;;;3.99;70.26;100792.10;1680265;85;21530;-70
2022/02/16 06:43:16;;;;;;;20.88;11.80;;;;;;;4.00;70.12;100786.30;1708021;84;21454;-70
2022/02/16 06:45:43;;;;;;;18.25;12.40;;;;;;;3.99;70.16;100777.56;1706901;84;21006;-69
2022/02/16 06:48:11;;;;;;;16.80;10.03;;;;;;;4.02;70.12;100773.70;1669595;86;20987;-69
2022/02/16 06:50:38;;;;;;;20.30;10.95;;;;;;;4.03;70.15;100779.80;1652750;86;21147;-69
2022/02/16 06:53:07;;;;;;;19.80;11.30;;;;;;;3.97;70.16;100778.78;1652637;86;21085;-69
2022/02/16 06:55:36;;;;;;;19.07;11.03;;;;;;;3.91;70.31;100779.61;1671564;85;21010;-69
2022/02/16 06:58:05;;;;;;;23.15;11.78;;;;;;;3.90;70.48;100769.55;1658198;85;21678;-70
2022/02/16 07:00:33;;;;;;;20.92;11.00;;;;;;;3.97;70.63;100769.53;1651871;86;21029;-70
2022/02/16 07:03:03;;;;;;;20.45;11.15;;;;;;;4.07;70.66;100779.67;1653962;86;21177;-70
2022/02/16 07:05:39;;;;;;;21.10;11.18;;;;;;;4.09;70.63;100773.16;1653535;86;20966;-69
2022/02/16 07:08:08;;;;;;;22.45;11.55;;;;;;;4.14;70.56;100778.63;1653939;86;20994;-69
2022/02/16 07:10:36;;;;;;;20.95;11.65;;;;;;;4.16;70.53;100779.75;1653964;86;21148;-70
2022/02/16 07:13:04;;;;;;;19.02;11.45;;;;;;;4.21;70.52;100777.27;1651973;86;21548;-70
2022/02/16 07:15:32;;;;;;;18.95;11.28;;;;;;;4.27;70.51;100772.99;1652076;86;21780;-69
2022/02/16 07:18:01;;;;;;;20.20;11.75;;;;;;;4.31;70.48;100773.70;1641869;87;21664;-69
2022/02/16 07:20:32;;;;;;;20.32;11.65;;;;;;;4.34;70.40;100776.41;1637939;85;21531;-69
2022/02/16 07:23:00;;;;;;;22.27;11.90;;;;;;;4.40;70.35;100772.93;1651305;87;21085;-69
2022/02/16 07:25:29;;;;;;;20.97;11.70;;;;;;;4.43;70.18;100771.19;1677945;85;21569;-69
2022/02/16 07:27:58;;;;;;;19.80;12.15;;;;;;;4.46;70.11;100763.64;1677897;85;21615;-69
2022/02/16 07:30:25;;;;;;;19.87;11.80;;;;;;;4.52;70.05;100759.86;1667327;86;20955;-69
2022/02/16 07:32:53;;;;;;;20.75;11.65;;;;;;;4.56;70.06;100759.22;1633872;86;21074;-69
2022/02/16 07:35:19;;;;;;;23.75;13.85;;;;;;;4.62;70.02;100753.08;1626097;88;21581;-69
2022/02/16 07:37:48;;;;;;;24.67;13.35;;;;;;;4.67;70.00;100755.91;1651496;86;21048;-69
2022/02/16 07:40:16;;;;;;;22.98;12.88;;;;;;;4.75;70.00;100752.71;1651411;86;21044;-69
2022/02/16 07:42:43;;;;;;;23.92;14.23;;;;;;;4.78;69.88;100749.13;1642116;87;21042;-69
2022/02/16 07:45:27;;;;;;;25.00;14.18;;;;;;;4.82;69.83;100744.21;1622696;88;21063;-69
2022/02/16 07:47:55;;;;;;;26.00;14.30;;;;;;;4.81;69.61;100744.73;1626092;88;21066;-69
2022/02/16 07:50:24;;;;;;;23.65;12.73;;;;;;;4.81;69.54;100747.89;1626182;88;21098;-69
2022/02/16 07:53:12;;;;;;;25.23;13.18;;;;;;;4.83;69.48;100749.27;1651920;86;21168;-70
2022/02/16 07:55:46;;;;;;;24.30;13.05;;;;;;;4.82;69.38;100743.70;1651820;85;21025;-69
2022/02/16 07:58:13;;;;;;;20.88;12.15;;;;;;;4.82;69.33;100735.75;1641859;87;21028;-69
2022/02/16 08:00:41;;;;;;;26.20;13.55;;;;;;;4.84;69.26;100732.91;1626099;88;20982;-69
2022/02/16 08:03:09;;;;;;;27.37;13.08;;;;;;;4.84;69.24;100737.69;1626075;88;21011;-68
2022/02/16 08:05:39;;;;;;;24.23;13.13;;;;;;;4.88;69.22;100733.58;1669905;85;21108;-68
2022/02/16 08:08:05;;;;;;;26.68;14.20;;;;;;;4.86;69.12;100733.48;1656347;85;21005;-69
2022/02/16 08:10:33;;;;;;;24.25;13.60;;;;;;;4.84;69.03;100733.72;1679518;85;21136;-69
2022/02/16 08:13:01;;;;;;;25.17;13.13;;;;;;;4.84;68.97;100727.62;1679292;85;21017;-69
2022/02/16 08:15:36;;;;;;;24.20;11.97;;;;;;;4.87;68.94;100728.00;1670030;84;21067;-69
2022/02/16 08:18:03;;;;;;;22.82;12.05;;;;;;;4.80;68.77;100727.20;1652579;85;21171;-69
2022/02/16 08:20:35;;;;;;;18.20;11.35;;;;;;;4.77;68.84;100730.80;1651279;87;21054;-70
2022/02/16 08:23:22;;;;;;;21.10;12.70;;;;;;;4.77;68.75;100731.63;1651446;87;21498;-69
2022/02/16 08:25:49;;;;;;;20.00;12.07;;;;;;;4.76;68.67;100723.38;1651347;86;20983;-69
2022/02/16 08:28:21;;;;;;;20.60;12.45;;;;;;;4.78;68.59;100714.72;1651379;87;20971;-69
2022/02/16 08:30:49;;;;;;;18.85;12.65;;;;;;;4.82;68.60;100712.45;1678089;85;21207;-70
2022/02/16 08:33:17;;;;;;;21.27;12.15;;;;;;;4.87;68.53;100721.37;1679562;84;21026;-69
2022/02/16 08:35:46;;;;;;;16.05;11.28;;;;;;;4.93;68.48;100718.36;1670389;84;21035;-68
2022/02/16 08:38:13;;;;;;;19.02;12.53;;;;;;;4.99;68.37;100716.70;1652613;86;21085;-72
2022/02/16 08:40:41;;;;;;;18.27;11.50;;;;;;;4.98;68.17;100715.09;1651358;86;21599;-70
2022/02/16 08:43:09;;;;;;;20.02;12.65;;;;;;;4.97;67.97;100708.16;1627404;86;21582;-70
2022/02/16 08:45:38;;;;;;;18.52;12.82;;;;;;;4.96;67.79;100715.29;1651725;86;20961;-70
2022/02/16 08:48:06;;;;;;;18.57;11.65;;;;;;;4.94;67.64;100704.93;1651898;86;21037;-71
2022/02/16 08:50:33;;;;;;;17.65;11.78;;;;;;;4.94;67.31;100710.73;1619852;87;21089;-70
2022/02/16 08:53:02;;;;;;;15.23;11.60;;;;;;;4.85;67.02;100706.22;1626070;88;20990;-71
2022/02/16 08:55:29;;;;;;;16.37;11.43;;;;;;;4.84;67.04;100701.95;1631682;86;21175;-69
2022/02/16 08:57:55;;;;;;;17.23;12.63;;;;;;;4.88;67.07;100699.17;1679378;85;21037;-69
2022/02/16 09:00:24;;;;;;;18.45;12.33;;;;;;;5.00;67.13;100698.45;1679313;85;21561;-69
2022/02/16 09:02:51;;;;;;;18.62;12.47;;;;;;;5.11;67.05;100698.58;1669253;86;21059;-70
2022/02/16 09:05:18;;;;;;;17.80;12.33;;;;;;;5.26;66.89;100697.41;1652919;86;21034;-71
2022/02/16 09:07:48;;;;;;;18.20;12.30;;;;;;;5.36;66.65;100699.88;1679130;85;21046;-70
2022/02/16 09:10:15;;;;;;;18.87;12.65;;;;;;;5.48;66.43;100699.14;1679297;85;21030;-70
2022/02/16 09:12:43;;;;;;;16.60;12.80;;;;;;;5.60;66.22;100692.09;1669087;86;21023;-69
2022/02/16 09:15:09;;;;;;;18.07;12.68;;;;;;;5.73;66.05;100689.30;1652789;86;21019;-71
2022/02/16 09:17:38;;;;;;;17.35;11.48;;;;;;;5.85;65.66;100689.34;1652100;86;21085;-69
2022/02/16 09:20:07;;;;;;;19.98;14.23;;;;;;;5.93;65.39;100684.31;1651280;87;21589;-72
2022/02/16 09:22:35;;;;;;;18.92;12.40;;;;;;;5.97;65.01;100686.80;1651249;87;21054;-70
2022/02/16 09:25:03;;;;;;;17.15;12.03;;;;;;;5.97;64.67;100677.52;1652502;86;21018;-70
2022/02/16 09:27:29;;;;;;;15.95;11.05;;;;;;;6.01;64.51;100678.17;1652735;86;21526;-70
2022/02/16 09:29:58;;;;;;;18.73;12.60;;;;;;;6.03;64.15;100671.33;1652757;86;20999;-71
2022/02/16 09:32:25;;;;;;;18.75;13.80;;;;;;;5.96;63.90;100670.09;1639517;86;21101;-70
2022/02/16 09:34:54;;;;;;;19.50;13.08;;;;;;;5.92;63.93;100672.03;1627060;86;20979;-70
2022/02/16 09:37:21;;;;;;;23.32;13.62;;;;;;;5.94;64.02;100667.36;1626237;88;21065;-70
2022/02/16 09:39:48;;;;;;;22.62;14.18;;;;;;;5.96;63.88;100662.14;1651604;86;21085;-70
2022/02/16 09:42:14;;;;;;;19.23;13.55;;;;;;;6.00;63.81;100661.17;1651611;86;21147;-68
2022/02/16 09:44:52;;;;;;;20.62;13.62;;;;;;;6.05;63.78;100653.34;1641887;87;21153;-70
2022/02/16 09:47:18;;;;;;;20.68;13.88;;;;;;;6.14;63.75;100652.00;1622834;88;21086;-70
2022/02/16 09:49:45;;;;;;;17.95;12.23;;;;;;;6.21;63.59;100647.41;1625994;88;21065;-71
2022/02/16 09:52:13;;;;;;;19.32;13.58;;;;;;;6.28;63.43;100656.59;1652043;86;21073;-70
2022/02/16 09:54:39;;;;;;;17.95;12.25;;;;;;;6.26;63.16;100653.38;1651792;86;21033;-71
2022/02/16 09:57:06;;;;;;;20.45;13.93;;;;;;;6.20;62.86;100650.30;1642046;87;21784;-71
2022/02/16 09:59:34;;;;;;;20.90;14.55;;;;;;;6.11;62.80;100647.95;1625933;88;21075;-69
2022/02/16 10:02:04;;;;;;;21.75;14.60;;;;;;;6.05;62.93;100647.52;1629314;86;21265;-69
2022/02/16 10:04:33;;;;;;;18.12;12.78;;;;;;;6.09;62.93;100641.27;1642062;87;21573;-70
2022/02/16 10:07:01;;;;;;;17.73;12.95;;;;;;;6.09;62.88;100640.75;1626495;88;21125;-69
2022/02/16 10:09:32;;;;;;;19.48;14.18;;;;;;;6.06;62.77;100643.05;1626098;88;21197;-69
2022/02/16 10:12:02;;;;;;;20.60;13.35;;;;;;;6.02;62.78;100633.41;1626418;88;21130;-70
2022/02/16 10:14:32;;;;;;;20.75;14.20;;;;;;;6.00;62.83;100626.70;1626033;88;21237;-69
2022/02/16 10:17:02;;;;;;;20.82;14.18;;;;;;;6.00;62.88;100621.41;1673395;85;21062;-70
2022/02/16 10:19:48;;;;;;;21.82;13.98;;;;;;;6.07;63.02;100615.48;1680315;85;21165;-70
2022/02/16 10:22:15;;;;;;;21.95;14.70;;;;;;;6.14;63.08;100605.59;1696640;84;21125;-70
2022/02/16 10:24:42;;;;;;;21.45;14.90;;;;;;;6.08;63.05;100607.29;1651801;86;21048;-70
2022/02/16 10:27:09;;;;;;;18.70;13.18;;;;;;;6.09;63.20;100603.63;1619897;87;21047;-70
2022/02/16 10:29:36;;;;;;;21.33;14.75;;;;;;;6.13;63.24;100598.67;1626081;88;21577;-70
2022/02/16 10:32:03;;;;;;;21.40;13.90;;;;;;;6.19;63.26;100596.45;1626219;88;21536;-70
2022/02/16 10:34:53;;;;;;;20.50;14.20;;;;;;;6.24;63.22;100595.23;1626085;88;21576;-70
2022/02/16 10:37:35;;;;;;;23.22;14.65;;;;;;;6.28;63.14;100577.82;1640195;86;21126;-70
2022/02/16 10:40:16;;;;;;;21.48;14.98;;;;;;;6.31;63.03;100579.22;1682067;85;21049;-68
2022/02/16 10:42:56;;;;;;;21.40;14.87;;;;;;;6.35;63.06;100572.44;1679244;85;21546;-69
2022/02/16 10:45:26;;;;;;;24.15;16.32;;;;;;;6.41;62.99;100566.72;1669470;86;21059;-69
2022/02/16 10:48:01;;;;;;;22.22;15.25;;;;;;;6.48;62.93;100567.41;1652958;86;21112;-70
2022/02/16 10:50:29;;;;;;;20.35;13.78;;;;;;;6.51;62.80;100568.28;1652631;86;21007;-70
2022/02/16 10:53:08;;;;;;;24.23;15.08;;;;;;;6.50;62.67;100568.00;1652663;86;21090;-70
2022/02/16 10:55:46;;;;;;;21.23;15.03;;;;;;;6.48;62.61;100565.59;1656596;85;21071;-70
2022/02/16 10:58:27;;;;;;;18.15;12.05;;;;;;;6.49;62.54;100556.59;1675911;85;21095;-71
2022/02/16 11:00:57;;;;;;;20.20;14.15;;;;;;;6.52;62.42;100553.48;1676864;85;22211;-69
2022/02/16 11:03:32;;;;;;;18.85;13.38;;;;;;;6.48;62.30;100552.33;1676239;85;21065;-69
2022/02/16 11:06:02;;;;;;;16.77;12.45;;;;;;;6.50;62.26;100548.11;1676648;85;21033;-70
2022/02/16 11:08:32;;;;;;;15.18;10.95;;;;;;;6.57;62.21;100545.62;1676828;85;21524;-70
2022/02/16 11:11:03;;;;;;;17.23;11.60;;;;;;;6.63;61.92;100537.78;1676435;85;21077;-70
2022/02/16 11:13:30;;;;;;;17.40;12.03;;;;;;;6.68;61.85;100540.04;1676425;85;21843;-70
2022/02/16 11:15:59;;;;;;;18.62;13.05;;;;;;;6.74;61.61;100533.78;1655469;85;21043;-69
2022/02/16 11:18:26;;;;;;;17.40;12.98;;;;;;;6.74;61.33;100533.78;1652811;86;21014;-69
2022/02/16 11:21:17;;;;;;;17.77;13.30;;;;;;;6.76;61.31;100523.75;1652764;86;21585;-69
2022/02/16 11:23:52;;;;;;;17.55;13.32;;;;;;;6.78;61.07;100520.88;1679545;85;20942;-70
2022/02/16 11:26:40;;;;;;;20.02;13.70;;;;;;;6.73;60.91;100516.77;1679396;85;21147;-69